Time;durP1;ratioP1;P1;durP2;ratioP2;P2;SDS_P1;SDS_P2;PMS_P1;PMS_P2;Temp;Humidity;BMP_temperature;BMP_pressure;BME280_temperature;BME280_humidity;BME280_pressure;Samples;Min_cycle;Max_cycle;Signal;HPM_P1;HPM_P2
2023/06/28 00:00:51;;;;;;;0.77;0.77;;;;;;;20.10;54.22;95550.44;4338970;32;20198;-58
2023/06/28 00:03:17;;;;;;;0.43;0.43;;;;;;;20.03;55.36;95557.56;4323349;32;20224;-58
2023/06/28 00:05:42;;;;;;;0.47;0.47;;;;;;;20.10;56.76;95571.19;4357100;32;20303;-58
2023/06/28 00:08:08;;;;;;;0.50;0.50;;;;;;;19.91;58.15;95579.97;4362375;32;20197;-58
2023/06/28 00:10:33;;;;;;;0.50;0.50;;;;;;;19.73;60.88;95581.44;4321293;32;20241;-58
2023/06/28 00:12:58;;;;;;;0.40;0.40;;;;;;;19.73;59.42;95589.50;4324016;32;20248;-58
2023/06/28 00:15:25;;;;;;;0.73;0.73;;;;;;;19.75;60.33;95588.00;4340695;32;20199;-60
2023/06/28 00:17:51;;;;;;;0.40;0.40;;;;;;;19.58;60.92;95599.09;4357868;32;20207;-58
2023/06/28 00:20:18;;;;;;;0.43;0.43;;;;;;;19.62;61.76;95599.19;4328320;32;20190;-58
2023/06/28 00:22:44;;;;;;;0.60;0.60;;;;;;;19.69;58.18;95597.47;4334999;32;20293;-58
2023/06/28 00:25:10;;;;;;;0.73;0.63;;;;;;;19.57;58.30;95586.75;4337283;32;20300;-58
2023/06/28 00:27:39;;;;;;;0.63;0.63;;;;;;;19.36;59.54;95592.31;4345494;32;20245;-58
2023/06/28 00:30:05;;;;;;;0.60;0.53;;;;;;;19.47;62.73;95598.00;4329654;32;20193;-58
2023/06/28 00:32:32;;;;;;;0.73;0.50;;;;;;;19.54;61.70;95600.91;4318835;32;20204;-58
2023/06/28 00:34:57;;;;;;;0.87;0.87;;;;;;;19.33;62.44;95601.06;4318989;32;20216;-58
2023/06/28 00:37:23;;;;;;;0.93;0.87;;;;;;;19.08;62.99;95611.13;4331794;32;20258;-59
2023/06/28 00:39:49;;;;;;;0.73;0.73;;;;;;;19.36;63.37;95610.34;4337087;32;20195;-59
2023/06/28 00:42:15;;;;;;;0.50;0.50;;;;;;;19.20;63.85;95604.94;4350988;32;20185;-58
2023/06/28 00:44:40;;;;;;;0.70;0.70;;;;;;;19.23;62.80;95602.34;4304505;32;20190;-58
2023/06/28 00:47:07;;;;;;;0.40;0.40;;;;;;;19.33;63.68;95603.00;4337268;32;20236;-59
2023/06/28 00:49:35;;;;;;;0.83;0.83;;;;;;;19.09;66.42;95596.56;4340356;32;20259;-58
2023/06/28 00:52:02;;;;;;;0.60;0.60;;;;;;;19.12;65.56;95605.88;4331628;32;20193;-59
2023/06/28 00:54:28;;;;;;;0.93;0.93;;;;;;;18.88;67.29;95614.75;4308993;32;20205;-58
2023/06/28 00:56:54;;;;;;;2.13;0.77;;;;;;;18.95;69.84;95624.94;4341913;32;20238;-62
2023/06/28 00:59:21;;;;;;;1.27;0.87;;;;;;;19.02;67.42;95635.91;4301454;32;20194;-58
2023/06/28 01:01:51;;;;;;;0.80;0.80;;;;;;;18.83;67.46;95629.22;4313159;32;20259;-58
2023/06/28 01:04:18;;;;;;;2.27;1.07;;;;;;;18.91;64.74;95635.59;4354286;32;20220;-58
2023/06/28 01:06:54;;;;;;;0.83;0.83;;;;;;;18.97;65.40;95638.81;4317559;32;20239;-58
2023/06/28 01:09:25;;;;;;;0.60;0.60;;;;;;;18.77;67.35;95652.06;4310555;32;20193;-58
2023/06/28 01:11:53;;;;;;;0.63;0.63;;;;;;;18.58;69.89;95649.13;4342946;32;20193;-58
2023/06/28 01:14:21;;;;;;;0.83;0.83;;;;;;;18.68;70.13;95654.09;4347273;32;20199;-58
2023/06/28 01:16:54;;;;;;;0.70;0.70;;;;;;;18.82;70.72;95657.22;4344973;32;20244;-58
2023/06/28 01:19:23;;;;;;;0.53;0.53;;;;;;;18.81;70.52;95658.34;4340691;32;20181;-59
2023/06/28 01:21:50;;;;;;;1.57;1.47;;;;;;;18.94;70.65;95661.78;4348792;32;20181;-59
2023/06/28 01:24:21;;;;;;;0.53;0.53;;;;;;;18.87;72.83;95669.66;4334477;32;20211;-58
2023/06/28 01:26:51;;;;;;;0.70;0.70;;;;;;;18.93;72.49;95667.50;4351862;32;20211;-59
2023/06/28 01:29:24;;;;;;;0.47;0.47;;;;;;;18.97;72.20;95676.47;4346745;32;20185;-58
2023/06/28 01:31:52;;;;;;;1.07;1.07;;;;;;;19.07;72.54;95676.03;4314100;32;20228;-59
2023/06/28 01:34:17;;;;;;;0.53;0.53;;;;;;;18.71;74.71;95685.66;4330409;32;20243;-59
2023/06/28 01:36:47;;;;;;;0.60;0.60;;;;;;;18.86;74.49;95687.69;4347765;32;20279;-59
2023/06/28 01:39:15;;;;;;;0.63;0.63;;;;;;;18.53;76.46;95695.81;4332953;32;22761;-58
2023/06/28 01:41:43;;;;;;;1.63;1.23;;;;;;;18.80;74.63;95699.00;4332946;32;20300;-58
2023/06/28 01:44:09;;;;;;;0.60;0.60;;;;;;;18.83;74.77;95698.34;4334279;32;20201;-59
2023/06/28 01:46:38;;;;;;;1.30;1.20;;;;;;;18.54;76.60;95705.44;4354151;32;20296;-58
2023/06/28 01:49:06;;;;;;;0.93;0.93;;;;;;;18.74;75.39;95711.09;4329914;32;20224;-58
2023/06/28 01:51:34;;;;;;;0.80;0.80;;;;;;;18.62;75.91;95713.78;4346944;32;20216;-58
2023/06/28 01:54:03;;;;;;;0.80;0.80;;;;;;;18.53;75.82;95711.16;4324411;32;20220;-58
2023/06/28 01:56:31;;;;;;;1.23;1.23;;;;;;;18.66;75.31;95707.41;4300531;32;20255;-58
2023/06/28 01:58:57;;;;;;;0.97;0.97;;;;;;;18.27;77.69;95706.09;4331776;32;20220;-59
2023/06/28 02:01:22;;;;;;;0.47;0.47;;;;;;;18.49;76.97;95704.91;4325229;32;20272;-58
2023/06/28 02:03:49;;;;;;;1.63;0.97;;;;;;;18.54;77.35;95708.13;4333465;32;20189;-58
2023/06/28 02:06:16;;;;;;;1.07;1.07;;;;;;;18.36;78.30;95711.34;4338575;32;20193;-59
2023/06/28 02:08:41;;;;;;;0.77;0.77;;;;;;;18.51;78.03;95716.84;4319112;32;20201;-58
2023/06/28 02:11:07;;;;;;;2.63;1.07;;;;;;;18.59;77.51;95711.72;4286987;33;20253;-58
2023/06/28 02:13:33;;;;;;;0.77;0.77;;;;;;;18.62;77.46;95708.41;4324149;32;20198;-58
2023/06/28 02:16:03;;;;;;;1.37;1.27;;;;;;;18.60;77.33;95702.56;4325753;32;20197;-59
2023/06/28 02:18:31;;;;;;;0.87;0.87;;;;;;;18.49;78.43;95700.31;4323493;32;20177;-58
2023/06/28 02:20:56;;;;;;;0.30;0.30;;;;;;;18.20;80.16;95703.94;4341246;32;20244;-59
2023/06/28 02:23:22;;;;;;;1.10;1.10;;;;;;;18.37;79.88;95718.28;4330886;32;20185;-59
2023/06/28 02:25:48;;;;;;;0.83;0.83;;;;;;;18.34;80.18;95714.38;4294588;32;20185;-58
2023/06/28 02:28:15;;;;;;;1.20;1.10;;;;;;;18.48;78.87;95720.22;4330648;32;20189;-58
2023/06/28 02:30:42;;;;;;;1.17;1.00;;;;;;;18.38;79.85;95715.28;4320175;32;20279;-58
2023/06/28 02:33:07;;;;;;;1.07;0.70;;;;;;;18.44;79.19;95713.16;4322160;32;20200;-58
2023/06/28 02:35:33;;;;;;;1.00;0.93;;;;;;;18.72;77.98;95710.63;4333058;32;20205;-59
2023/06/28 02:38:00;;;;;;;1.50;1.37;;;;;;;18.66;78.37;95715.47;4339916;32;20189;-58
2023/06/28 02:40:27;;;;;;;5.03;1.50;;;;;;;18.75;77.62;95707.28;4333020;32;20237;-58
2023/06/28 02:43:06;;;;;;;0.63;0.63;;;;;;;18.29;79.99;95711.88;4334202;32;20208;-59
2023/06/28 02:45:33;;;;;;;1.57;1.50;;;;;;;18.38;80.04;95715.28;4322683;32;20235;-58
2023/06/28 02:47:58;;;;;;;0.90;0.90;;;;;;;18.29;80.45;95717.25;4338057;32;20184;-58
2023/06/28 02:50:25;;;;;;;1.47;1.43;;;;;;;18.18;80.71;95710.75;4329870;32;20215;-59
2023/06/28 02:52:52;;;;;;;0.90;0.90;;;;;;;18.24;80.78;95712.13;4326970;32;20212;-58
2023/06/28 02:55:18;;;;;;;0.60;0.60;;;;;;;18.18;81.29;95716.91;4340840;32;20260;-58
2023/06/28 02:57:45;;;;;;;0.83;0.50;;;;;;;18.10;81.40;95711.63;4303373;32;20265;-58
2023/06/28 03:00:11;;;;;;;0.60;0.60;;;;;;;18.45;79.39;95706.69;4311096;32;20205;-58
2023/06/28 03:02:36;;;;;;;1.27;1.20;;;;;;;18.35;80.08;95715.94;4340184;32;20240;-59
2023/06/28 03:05:03;;;;;;;0.93;0.93;;;;;;;18.38;79.40;95715.28;4321563;32;20220;-58
2023/06/28 03:07:30;;;;;;;0.77;0.77;;;;;;;18.32;79.27;95705.84;4335466;32;20201;-58
2023/06/28 03:09:56;;;;;;;0.93;0.93;;;;;;;18.20;79.76;95705.84;4327628;32;20245;-58
2023/06/28 03:12:23;;;;;;;1.10;1.10;;;;;;;18.20;79.58;95725.41;4318652;32;20220;-59
2023/06/28 03:14:49;;;;;;;1.10;1.10;;;;;;;18.10;79.10;95708.94;4325733;32;20190;-59
2023/06/28 03:17:17;;;;;;;1.10;1.10;;;;;;;18.06;79.35;95710.72;4330480;32;20202;-59
2023/06/28 03:19:43;;;;;;;0.90;0.90;;;;;;;18.15;79.40;95706.03;4334962;32;20293;-58
2023/06/28 03:22:09;;;;;;;1.80;1.17;;;;;;;18.09;79.86;95704.66;4308103;32;20197;-59
2023/06/28 03:24:35;;;;;;;1.40;1.30;;;;;;;18.22;79.40;95700.91;4339723;32;20185;-59
2023/06/28 03:27:01;;;;;;;1.00;1.00;;;;;;;18.29;78.75;95703.81;4337580;32;20212;-58
2023/06/28 03:29:27;;;;;;;3.33;1.13;;;;;;;18.17;79.32;95698.44;4335124;32;20229;-59
2023/06/28 03:31:54;;;;;;;0.60;0.60;;;;;;;17.98;80.67;95695.47;4336586;32;20289;-59
2023/06/28 03:34:20;;;;;;;0.93;0.93;;;;;;;18.09;80.40;95691.25;4343097;32;20181;-59
2023/06/28 03:36:47;;;;;;;0.90;0.90;;;;;;;18.07;80.36;95693.50;4321678;32;20231;-59
2023/06/28 03:39:15;;;;;;;0.70;0.70;;;;;;;18.37;79.14;95694.91;4343368;32;20284;-58
2023/06/28 03:41:41;;;;;;;1.20;1.20;;;;;;;18.45;78.63;95699.41;4333448;32;20290;-57
2023/06/28 03:44:08;;;;;;;1.00;1.00;;;;;;;18.39;79.10;95695.34;4336612;32;20289;-58
2023/06/28 03:46:36;;;;;;;1.00;0.73;;;;;;;18.58;78.17;95685.97;4317250;32;20202;-59
2023/06/28 03:49:02;;;;;;;0.70;0.50;;;;;;;18.52;78.38;95699.63;4320809;32;20208;-59
2023/06/28 03:51:30;;;;;;;0.93;0.93;;;;;;;18.47;78.50;95697.16;4342618;32;20204;-58
2023/06/28 03:53:55;;;;;;;0.50;0.50;;;;;;;18.29;79.64;95693.06;4326433;32;20193;-59
2023/06/28 03:56:21;;;;;;;0.80;0.80;;;;;;;18.45;78.58;95683.28;4318552;32;20300;-59
2023/06/28 03:58:49;;;;;;;0.97;0.97;;;;;;;18.30;78.94;95686.59;4331985;32;20211;-59
2023/06/28 04:01:15;;;;;;;0.70;0.70;;;;;;;18.30;78.90;95680.44;4297498;32;20224;-58
2023/06/28 04:03:42;;;;;;;1.60;1.07;;;;;;;18.16;79.55;95675.38;4314772;32;20182;-59
2023/06/28 04:06:08;;;;;;;0.53;0.53;;;;;;;18.32;78.84;95679.00;4289237;32;20237;-58
2023/06/28 04:08:35;;;;;;;0.80;0.80;;;;;;;18.27;79.05;95675.75;4330365;32;20269;-58
2023/06/28 04:11:02;;;;;;;1.03;1.03;;;;;;;17.94;80.56;95678.44;4329695;32;20186;-58
2023/06/28 04:13:27;;;;;;;1.03;1.03;;;;;;;18.17;79.70;95672.37;4319116;32;20228;-58
2023/06/28 04:15:53;;;;;;;0.57;0.57;;;;;;;18.22;79.63;95671.37;4333947;32;20211;-60
2023/06/28 04:18:18;;;;;;;1.13;0.93;;;;;;;18.31;79.01;95671.25;4325967;32;20198;-59
2023/06/28 04:20:44;;;;;;;0.43;0.43;;;;;;;18.16;79.67;95675.38;4313480;32;20197;-58
2023/06/28 04:23:09;;;;;;;1.30;1.30;;;;;;;18.08;79.83;95678.97;4310798;32;20193;-58
2023/06/28 04:25:34;;;;;;;0.70;0.70;;;;;;;17.98;80.59;95680.16;4303007;32;20198;-58
2023/06/28 04:27:59;;;;;;;7.10;0.67;;;;;;;18.22;79.50;95679.44;4291589;32;20201;-59
2023/06/28 04:30:25;;;;;;;1.33;1.33;;;;;;;18.18;79.60;95681.22;4319860;32;20211;-59
2023/06/28 04:32:51;;;;;;;0.60;0.60;;;;;;;18.32;79.07;95672.81;4327594;32;20197;-58
2023/06/28 04:35:18;;;;;;;0.70;0.70;;;;;;;18.31;78.95;95676.62;4337286;32;20190;-59
2023/06/28 04:37:43;;;;;;;0.73;0.73;;;;;;;18.44;78.54;95672.88;4322420;32;20331;-58
2023/06/28 04:40:10;;;;;;;0.93;0.93;;;;;;;18.16;79.59;95675.38;4303698;32;20256;-58
2023/06/28 04:42:36;;;;;;;1.03;1.00;;;;;;;18.40;78.74;95677.34;4311355;32;20224;-58
2023/06/28 04:45:06;;;;;;;1.53;1.37;;;;;;;18.43;78.57;95676.66;4316739;32;20228;-58
2023/06/28 04:47:31;;;;;;;0.63;0.63;;;;;;;18.17;79.74;95669.69;4328680;32;20202;-59
2023/06/28 04:50:00;;;;;;;0.90;0.90;;;;;;;18.23;79.93;95670.25;4315924;32;20240;-58
2023/06/28 04:52:25;;;;;;;0.67;0.67;;;;;;;18.27;79.67;95671.16;4331993;32;20205;-59
2023/06/28 04:54:52;;;;;;;1.10;1.10;;;;;;;18.29;79.50;95662.78;4330811;32;20186;-59
2023/06/28 04:57:20;;;;;;;5.10;1.23;;;;;;;18.12;80.52;95674.47;4331873;32;20251;-59
2023/06/28 04:59:45;;;;;;;0.73;0.73;;;;;;;18.23;79.87;95659.50;4304924;32;20194;-59
2023/06/28 05:02:12;;;;;;;0.67;0.67;;;;;;;18.36;79.02;95669.16;4342859;32;20255;-58
2023/06/28 05:04:37;;;;;;;0.87;0.87;;;;;;;18.37;79.10;95668.03;4340480;32;20303;-58
2023/06/28 05:07:07;;;;;;;0.90;0.90;;;;;;;18.40;78.71;95670.06;4348345;32;20243;-59
2023/06/28 05:09:35;;;;;;;0.93;0.93;;;;;;;18.47;78.56;95670.28;4301030;32;20197;-59
2023/06/28 05:12:02;;;;;;;0.80;0.80;;;;;;;18.60;77.96;95663.03;4340183;32;20228;-59
2023/06/28 05:14:30;;;;;;;1.07;1.07;;;;;;;18.48;77.87;95665.72;4336885;32;20186;-58
2023/06/28 05:16:56;;;;;;;1.13;1.13;;;;;;;18.45;78.12;95661.78;4316098;32;20213;-59
2023/06/28 05:19:24;;;;;;;0.93;0.93;;;;;;;18.58;77.54;95659.09;4338375;32;20212;-59
2023/06/28 05:21:50;;;;;;;0.70;0.63;;;;;;;18.33;78.45;95659.06;4327421;32;20192;-58
2023/06/28 05:24:16;;;;;;;0.63;0.63;;;;;;;18.21;78.60;95667.13;4340088;32;20287;-58
2023/06/28 05:26:43;;;;;;;3.63;1.07;;;;;;;18.27;78.63;95663.09;4322941;32;20307;-59
2023/06/28 05:29:08;;;;;;;0.80;0.80;;;;;;;18.37;78.17;95665.34;4337515;32;20193;-59
2023/06/28 05:31:41;;;;;;;0.67;0.67;;;;;;;18.24;78.80;95671.03;4322598;32;20257;-58
2023/06/28 05:34:07;;;;;;;1.33;1.33;;;;;;;18.36;77.80;95665.69;4312015;32;20190;-59
2023/06/28 05:36:35;;;;;;;0.57;0.57;;;;;;;18.47;77.30;95664.13;4321869;32;20209;-58
2023/06/28 05:39:02;;;;;;;0.73;0.73;;;;;;;18.43;77.27;95664.03;4319793;32;20197;-58
2023/06/28 05:41:27;;;;;;;1.13;1.13;;;;;;;18.39;77.79;95662.31;4344076;32;20252;-59
2023/06/28 05:43:52;;;;;;;0.80;0.80;;;;;;;18.25;77.97;95662.66;4348799;32;20197;-62
2023/06/28 05:46:20;;;;;;;0.50;0.50;;;;;;;18.40;77.79;95670.06;4337372;32;20189;-58
2023/06/28 05:48:46;;;;;;;5.53;1.00;;;;;;;18.41;77.78;95668.16;4317996;32;20197;-59
2023/06/28 05:51:14;;;;;;;1.20;1.20;;;;;;;18.33;78.69;95664.44;4313755;32;20212;-59
2023/06/28 05:53:41;;;;;;;0.73;0.73;;;;;;;18.42;77.93;95664.34;4294316;32;20272;-58
2023/06/28 05:56:08;;;;;;;1.10;0.73;;;;;;;18.18;78.97;95667.78;4287194;32;20218;-59
2023/06/28 05:58:37;;;;;;;0.80;0.80;;;;;;;18.12;79.59;95658.34;4281717;32;20272;-59
2023/06/28 06:01:03;;;;;;;0.93;0.90;;;;;;;18.26;78.61;95660.75;4328748;32;20193;-59
2023/06/28 06:03:30;;;;;;;1.07;1.07;;;;;;;18.37;78.33;95659.97;4344115;32;20197;-59
2023/06/28 06:05:56;;;;;;;14.40;2.40;;;;;;;18.15;78.80;95655.78;4326805;32;20200;-59
2023/06/28 06:08:21;;;;;;;9.80;1.67;;;;;;;18.72;76.87;95659.56;4318504;32;20192;-59
2023/06/28 06:10:47;;;;;;;1.43;1.33;;;;;;;19.01;74.45;95656.63;4332368;32;20197;-59
2023/06/28 06:13:12;;;;;;;1.50;0.70;;;;;;;19.20;73.23;95656.81;4289039;32;20345;-59
2023/06/28 06:15:39;;;;;;;1.87;1.73;;;;;;;19.32;72.67;95649.87;4318718;32;20182;-59
2023/06/28 06:18:04;;;;;;;2.00;1.30;;;;;;;19.36;72.73;95653.41;4299725;32;20201;-60
2023/06/28 06:20:35;;;;;;;0.97;0.97;;;;;;;19.56;71.26;95664.03;4293284;32;20194;-59
2023/06/28 06:23:01;;;;;;;1.07;1.07;;;;;;;19.60;71.00;95661.44;4324147;32;20197;-59
2023/06/28 06:25:30;;;;;;;0.70;0.70;;;;;;;19.38;72.19;95660.03;4323419;32;20192;-58
2023/06/28 06:27:56;;;;;;;2.40;0.70;;;;;;;19.54;71.27;95668.97;4325391;32;20219;-59
2023/06/28 06:30:23;;;;;;;0.50;0.50;;;;;;;19.54;71.50;95663.59;4322102;32;20185;-58
2023/06/28 06:32:51;;;;;;;1.07;0.97;;;;;;;19.48;72.25;95656.09;4305752;32;20265;-59
2023/06/28 06:35:17;;;;;;;0.40;0.40;;;;;;;19.40;72.09;95651.63;4337094;32;20243;-59
2023/06/28 06:37:45;;;;;;;0.30;0.30;;;;;;;19.48;71.73;95654.19;4317242;32;20284;-59
2023/06/28 06:40:13;;;;;;;1.00;0.80;;;;;;;19.58;71.10;95650.22;4331114;32;20197;-59
2023/06/28 06:42:39;;;;;;;0.40;0.40;;;;;;;19.62;70.81;95659.19;4337879;32;20208;-59
2023/06/28 06:45:16;;;;;;;0.77;0.77;;;;;;;19.61;71.10;95654.16;4326195;32;20186;-58
2023/06/28 06:47:43;;;;;;;0.83;0.83;;;;;;;19.31;72.59;95667.91;4269302;32;20233;-59
2023/06/28 06:50:10;;;;;;;1.57;1.47;;;;;;;19.45;71.94;95654.06;4310688;32;20185;-58
2023/06/28 06:52:37;;;;;;;3.60;1.33;;;;;;;19.51;72.00;95663.50;4299359;32;20333;-58
2023/06/28 06:55:14;;;;;;;0.60;0.60;;;;;;;19.60;71.59;95656.06;4324431;32;20258;-58
2023/06/28 06:57:41;;;;;;;1.93;1.67;;;;;;;19.44;72.43;95652.50;4323169;32;20193;-58
2023/06/28 07:00:12;;;;;;;0.90;0.90;;;;;;;19.13;73.57;95653.91;4313009;32;20216;-58
2023/06/28 07:02:41;;;;;;;1.37;1.27;;;;;;;19.26;73.69;95657.37;4344048;32;20249;-58
2023/06/28 07:05:06;;;;;;;0.53;0.53;;;;;;;19.16;74.10;95657.84;4299860;32;20248;-58
2023/06/28 07:07:32;;;;;;;4.40;0.90;;;;;;;19.23;73.46;95656.16;4345268;32;20268;-58
2023/06/28 07:09:59;;;;;;;1.60;1.57;;;;;;;19.28;73.33;95665.91;4333573;32;20197;-59
2023/06/28 07:12:26;;;;;;;1.20;1.13;;;;;;;19.08;74.24;95658.75;4342417;32;20240;-58
2023/06/28 07:14:51;;;;;;;0.20;0.20;;;;;;;19.20;73.85;95664.91;4341185;32;20190;-58
2023/06/28 07:17:18;;;;;;;0.67;0.53;;;;;;;19.22;72.97;95657.28;4341673;32;20245;-59
2023/06/28 07:19:46;;;;;;;0.80;0.80;;;;;;;19.22;72.37;95659.19;4314256;32;20364;-59
2023/06/28 07:22:12;;;;;;;0.60;0.60;;;;;;;18.96;73.05;95661.44;4335964;32;20184;-59
2023/06/28 07:24:38;;;;;;;0.67;0.67;;;;;;;19.07;73.50;95671.44;4332251;32;20288;-59
2023/06/28 07:27:03;;;;;;;0.57;0.57;;;;;;;19.01;73.49;95667.38;4349819;32;20189;-58
2023/06/28 07:29:29;;;;;;;0.97;0.97;;;;;;;19.11;73.37;95674.22;4322738;32;20188;-58
2023/06/28 07:31:57;;;;;;;0.97;0.97;;;;;;;19.12;72.75;95675.78;4336647;32;20193;-58
2023/06/28 07:34:22;;;;;;;0.37;0.37;;;;;;;19.27;72.53;95674.31;4349331;32;20344;-58
2023/06/28 07:36:49;;;;;;;1.00;0.87;;;;;;;19.24;72.51;95670.38;4322001;32;20244;-59
2023/06/28 07:39:16;;;;;;;2.23;0.83;;;;;;;19.22;72.41;95680.69;4333515;32;20272;-58
2023/06/28 07:41:42;;;;;;;0.37;0.37;;;;;;;19.26;72.29;95683.50;4301532;32;20202;-58
2023/06/28 07:44:07;;;;;;;0.40;0.40;;;;;;;19.17;72.61;95684.41;4342997;32;20247;-58
2023/06/28 07:46:35;;;;;;;0.40;0.40;;;;;;;19.17;71.97;95684.41;4340578;32;20213;-58
2023/06/28 07:49:01;;;;;;;0.43;0.43;;;;;;;19.29;72.71;95672.06;4331454;32;20205;-58
2023/06/28 07:51:28;;;;;;;0.60;0.60;;;;;;;19.36;72.13;95678.41;4311701;32;20216;-58
2023/06/28 07:53:54;;;;;;;0.97;0.90;;;;;;;19.47;71.63;95676.03;4312673;32;20200;-58
2023/06/28 07:56:21;;;;;;;0.27;0.27;;;;;;;19.23;71.43;95685.75;4329558;32;20201;-58
2023/06/28 07:58:49;;;;;;;0.67;0.67;;;;;;;19.17;71.87;95680.91;4348890;32;20188;-58
2023/06/28 08:01:15;;;;;;;0.70;0.70;;;;;;;19.37;71.49;95685.38;4306348;32;20213;-58
2023/06/28 08:03:40;;;;;;;0.57;0.57;;;;;;;19.41;70.68;95674.72;4292106;32;20205;-57
2023/06/28 08:06:06;;;;;;;4.13;1.00;;;;;;;19.38;70.94;95691.53;4332474;32;20204;-58
2023/06/28 08:08:32;;;;;;;0.67;0.67;;;;;;;19.33;71.18;95689.09;4339513;32;20201;-58
2023/06/28 08:10:57;;;;;;;1.00;1.00;;;;;;;19.37;70.71;95689.97;4331131;32;20259;-57
2023/06/28 08:13:23;;;;;;;0.33;0.33;;;;;;;19.43;71.46;95696.69;4348323;32;20229;-60
2023/06/28 08:15:48;;;;;;;0.73;0.73;;;;;;;19.43;69.91;95692.09;4336149;32;20193;-59
2023/06/28 08:18:16;;;;;;;0.70;0.70;;;;;;;19.79;69.91;95685.81;4340413;32;20197;-58
2023/06/28 08:20:44;;;;;;;1.30;1.03;;;;;;;19.82;69.13;95685.13;4338399;32;20220;-58
2023/06/28 08:23:10;;;;;;;0.83;0.83;;;;;;;19.92;69.41;95691.97;4348938;32;20185;-59
2023/06/28 08:25:35;;;;;;;0.50;0.50;;;;;;;19.87;68.79;95676.03;4339400;32;20189;-59
2023/06/28 08:28:00;;;;;;;0.83;0.83;;;;;;;20.02;67.63;95680.66;4339706;32;20204;-58
2023/06/28 08:30:25;;;;;;;0.70;0.70;;;;;;;19.81;68.50;95678.19;4346629;32;20194;-58
2023/06/28 08:32:51;;;;;;;0.40;0.40;;;;;;;19.81;68.74;95683.56;4341238;32;20210;-58
2023/06/28 08:35:16;;;;;;;1.33;0.87;;;;;;;19.60;67.67;95688.38;4344367;32;20244;-58
2023/06/28 08:37:41;;;;;;;0.80;0.60;;;;;;;19.81;68.42;95678.19;4341835;32;20207;-58
2023/06/28 08:40:07;;;;;;;5.23;1.20;;;;;;;19.90;68.60;95686.13;4341009;32;20229;-58
2023/06/28 08:42:34;;;;;;;0.70;0.63;;;;;;;19.98;68.22;95679.78;4338041;32;20194;-58
2023/06/28 08:45:02;;;;;;;0.93;0.93;;;;;;;20.23;68.03;95683.94;4351244;32;20209;-58
2023/06/28 08:47:32;;;;;;;0.27;0.27;;;;;;;20.41;66.56;95680.94;4348872;32;20225;-59
2023/06/28 08:49:57;;;;;;;0.53;0.53;;;;;;;20.10;67.52;95685.13;4355919;32;20204;-58
2023/06/28 08:52:25;;;;;;;1.80;0.73;;;;;;;20.21;66.87;95690.78;4339647;32;20201;-57
2023/06/28 08:54:51;;;;;;;0.50;0.50;;;;;;;19.89;66.40;95679.19;4332841;32;20182;-59
2023/06/28 08:57:17;;;;;;;0.83;0.83;;;;;;;20.02;66.89;95682.59;4353346;32;20193;-58
2023/06/28 08:59:43;;;;;;;0.63;0.63;;;;;;;20.08;64.38;95670.44;4345905;32;20310;-58
2023/06/28 09:02:09;;;;;;;0.50;0.50;;;;;;;20.33;65.29;95674.56;4345647;32;20190;-59
2023/06/28 09:04:35;;;;;;;1.30;0.73;;;;;;;20.23;65.94;95688.53;4357542;32;20208;-58
2023/06/28 09:07:01;;;;;;;0.50;0.50;;;;;;;20.32;66.88;95691.06;4338633;32;20223;-58
2023/06/28 09:09:28;;;;;;;0.50;0.50;;;;;;;20.31;65.43;95679.50;4345114;32;20236;-58
2023/06/28 09:11:53;;;;;;;0.90;0.90;;;;;;;20.34;65.03;95672.66;4338537;32;20245;-60
2023/06/28 09:14:18;;;;;;;1.30;0.97;;;;;;;20.30;64.92;95661.78;4341581;32;20195;-58
2023/06/28 09:16:44;;;;;;;2.17;0.70;;;;;;;20.38;64.12;95663.53;4336114;32;20189;-59
2023/06/28 09:19:09;;;;;;;0.50;0.50;;;;;;;20.23;63.83;95672.37;4344279;32;20308;-58
2023/06/28 09:21:34;;;;;;;0.73;0.73;;;;;;;20.26;63.62;95677.06;4349379;32;20202;-58
2023/06/28 09:24:01;;;;;;;0.30;0.30;;;;;;;20.33;62.39;95671.09;4342844;32;20197;-58
2023/06/28 09:26:30;;;;;;;0.43;0.43;;;;;;;20.31;61.87;95674.13;4338581;32;20212;-58
2023/06/28 09:28:59;;;;;;;0.80;0.80;;;;;;;20.34;62.47;95673.44;4339223;32;20303;-58
2023/06/28 09:31:24;;;;;;;0.57;0.57;;;;;;;20.35;62.70;95669.63;4343184;32;20212;-58
2023/06/28 09:33:53;;;;;;;0.53;0.53;;;;;;;20.34;61.35;95675.34;4341678;32;20194;-58
2023/06/28 09:36:19;;;;;;;0.73;0.73;;;;;;;20.51;65.70;95675.03;4329449;32;20201;-58
2023/06/28 09:38:44;;;;;;;0.57;0.57;;;;;;;20.48;62.42;95668.41;4339524;32;20205;-59
2023/06/28 09:41:09;;;;;;;0.40;0.40;;;;;;;20.69;65.04;95670.84;4343242;32;20259;-59
2023/06/28 09:43:36;;;;;;;2.73;0.93;;;;;;;20.66;63.64;95673.47;4339594;32;20189;-59
2023/06/28 09:46:13;;;;;;;0.97;0.97;;;;;;;20.66;61.45;95665.38;4341982;32;20196;-58
2023/06/28 09:48:45;;;;;;;0.53;0.40;;;;;;;20.70;61.55;95668.94;4330470;32;20252;-58
2023/06/28 09:51:11;;;;;;;0.23;0.23;;;;;;;20.55;60.08;95673.22;4340574;32;20193;-58
2023/06/28 09:53:52;;;;;;;0.10;0.10;;;;;;;20.50;61.28;95666.16;4340019;32;20260;-59
2023/06/28 09:56:17;;;;;;;0.53;0.53;;;;;;;20.74;60.31;95662.50;4338703;32;20224;-59
2023/06/28 09:58:46;;;;;;;0.73;0.73;;;;;;;20.85;61.55;95657.34;4343031;32;20324;-60
2023/06/28 10:01:16;;;;;;;0.67;0.67;;;;;;;20.71;59.31;95648.94;4340712;32;20245;-59
2023/06/28 10:03:44;;;;;;;0.97;0.97;;;;;;;20.86;63.80;95648.91;4348551;32;20220;-60
2023/06/28 10:06:10;;;;;;;0.30;0.30;;;;;;;20.77;59.02;95652.94;4341352;32;20185;-60
2023/06/28 10:08:36;;;;;;;0.37;0.37;;;;;;;20.93;60.41;95653.69;4343571;32;20206;-59
2023/06/28 10:11:08;;;;;;;0.70;0.70;;;;;;;20.43;55.40;95649.81;4337697;32;20208;-60
2023/06/28 10:13:34;;;;;;;0.40;0.40;;;;;;;20.07;56.93;95647.31;4351853;32;20194;-60
2023/06/28 10:16:17;;;;;;;0.47;0.47;;;;;;;20.44;63.46;95645.97;4331673;32;20217;-60
2023/06/28 10:18:43;;;;;;;0.53;0.50;;;;;;;20.51;60.78;95640.00;4338193;32;20212;-60
2023/06/28 10:21:09;;;;;;;0.50;0.50;;;;;;;20.74;63.95;95642.84;4347157;32;20221;-60
2023/06/28 10:23:35;;;;;;;0.60;0.60;;;;;;;21.04;63.65;95638.50;4339902;32;20200;-60
2023/06/28 10:26:05;;;;;;;0.23;0.23;;;;;;;20.95;60.23;95639.84;4341660;32;20197;-60
2023/06/28 10:28:34;;;;;;;0.30;0.30;;;;;;;21.35;61.97;95639.59;4338358;32;20213;-60
2023/06/28 10:31:00;;;;;;;0.30;0.30;;;;;;;21.31;61.00;95644.13;4341728;32;20212;-60
2023/06/28 10:33:31;;;;;;;0.43;0.43;;;;;;;21.17;59.61;95639.19;4341953;32;20193;-60
2023/06/28 10:35:57;;;;;;;2.30;0.70;;;;;;;21.45;60.64;95637.09;4337447;32;20177;-60
2023/06/28 10:38:23;;;;;;;0.47;0.47;;;;;;;21.05;55.48;95639.28;4331289;32;20252;-60
2023/06/28 10:40:48;;;;;;;0.67;0.57;;;;;;;21.02;57.06;95643.47;4341121;32;20194;-60
2023/06/28 10:43:22;;;;;;;0.33;0.33;;;;;;;21.25;60.12;95639.00;4332587;32;20245;-60
2023/06/28 10:45:47;;;;;;;0.60;0.60;;;;;;;21.42;60.13;95632.41;4342224;32;20198;-60
2023/06/28 10:48:18;;;;;;;0.50;0.50;;;;;;;21.56;59.13;95638.09;4342838;32;21714;-60
2023/06/28 10:50:44;;;;;;;0.80;0.80;;;;;;;21.62;58.64;95638.56;4330698;32;20290;-59
2023/06/28 10:53:23;;;;;;;0.40;0.40;;;;;;;21.61;57.75;95637.03;4338794;32;20236;-59
2023/06/28 10:56:04;;;;;;;0.30;0.30;;;;;;;21.46;56.67;95640.56;4351253;32;20186;-59
2023/06/28 10:58:45;;;;;;;0.40;0.40;;;;;;;21.56;59.03;95645.41;4337458;32;20201;-59
2023/06/28 11:01:31;;;;;;;0.50;0.50;;;;;;;21.58;57.88;95637.75;4345319;32;20201;-59
2023/06/28 11:04:16;;;;;;;0.60;0.60;;;;;;;21.72;57.84;95642.63;4351460;32;20245;-60
2023/06/28 11:06:42;;;;;;;0.57;0.57;;;;;;;21.61;58.18;95642.44;4338549;32;20189;-60
2023/06/28 11:09:19;;;;;;;0.40;0.40;;;;;;;21.46;57.27;95645.97;4340364;32;20198;-59
2023/06/28 11:11:56;;;;;;;1.70;0.67;;;;;;;21.27;53.60;95647.53;4350737;32;20255;-60
2023/06/28 11:14:27;;;;;;;0.60;0.60;;;;;;;20.88;54.42;95637.75;4347331;32;20215;-60
2023/06/28 11:17:02;;;;;;;0.10;0.10;;;;;;;21.09;56.52;95642.84;4339050;32;20209;-59
2023/06/28 11:19:29;;;;;;;1.20;0.53;;;;;;;21.14;56.40;95640.66;4344702;32;20201;-59
2023/06/28 11:21:58;;;;;;;0.37;0.37;;;;;;;21.20;55.86;95639.25;4339145;32;20296;-60
2023/06/28 11:24:44;;;;;;;0.60;0.60;;;;;;;21.29;57.99;95636.38;4340531;32;20194;-60
2023/06/28 11:27:12;;;;;;;1.13;0.47;;;;;;;21.47;58.75;95625.94;4338709;32;20193;-59
2023/06/28 11:29:58;;;;;;;0.67;0.67;;;;;;;21.76;58.67;95632.69;4342656;32;20208;-58
2023/06/28 11:32:28;;;;;;;0.90;0.90;;;;;;;21.60;53.01;95635.47;4343128;32;20213;-59
2023/06/28 11:34:56;;;;;;;0.70;0.70;;;;;;;21.63;55.87;95634.75;4347731;32;20182;-59